Time;durP1;ratioP1;P1;durP2;ratioP2;P2;SDS_P1;SDS_P2;PMS_P1;PMS_P2;Temp;Humidity;BMP_temperature;BMP_pressure;BME280_temperature;BME280_humidity;BME280_pressure;Samples;Min_cycle;Max_cycle;Signal;HPM_P1;HPM_P2
2022/02/28 00:01:02;;;;;;;9.20;3.77;;;1.20;99.90;;;;;;4994318;28;20213;-71
2022/02/28 00:03:29;;;;;;;6.00;3.07;;;1.20;99.90;;;;;;4994346;28;20210;-71
2022/02/28 00:05:56;;;;;;;8.97;4.30;;;1.10;99.90;;;;;;4994329;28;20211;-71
2022/02/28 00:08:23;;;;;;;7.10;3.30;;;1.00;99.90;;;;;;4994463;28;20206;-71
2022/02/28 00:10:50;;;;;;;8.90;3.50;;;1.10;99.90;;;;;;4994061;28;20210;-71
2022/02/28 00:13:16;;;;;;;9.07;4.20;;;1.10;99.90;;;;;;4994093;28;20217;-71
2022/02/28 00:15:44;;;;;;;8.17;2.73;;;1.00;99.90;;;;;;4994575;28;20206;-71
2022/02/28 00:18:11;;;;;;;7.67;3.93;;;1.00;99.90;;;;;;4994223;28;20202;-71
2022/02/28 00:20:39;;;;;;;6.50;3.43;;;1.00;99.90;;;;;;4994694;28;20207;-71
2022/02/28 00:23:08;;;;;;;5.20;3.03;;;1.00;99.90;;;;;;4993989;28;20596;-72
2022/02/28 00:25:34;;;;;;;11.80;4.17;;;0.90;99.90;;;;;;4994115;28;20210;-71
2022/02/28 00:28:03;;;;;;;10.00;4.33;;;0.90;99.90;;;;;;4993565;28;20217;-71
2022/02/28 00:30:29;;;;;;;8.57;3.40;;;0.80;99.90;;;;;;4993723;28;20218;-71
2022/02/28 00:32:58;;;;;;;5.93;3.23;;;0.90;99.90;;;;;;4993979;28;20231;-71
2022/02/28 00:35:24;;;;;;;8.37;3.53;;;0.90;99.90;;;;;;4993323;28;20213;-71
2022/02/28 00:37:51;;;;;;;8.97;3.93;;;0.80;99.90;;;;;;4993627;28;20716;-71
2022/02/28 00:40:18;;;;;;;7.43;3.67;;;0.80;99.90;;;;;;4993571;28;20214;-71
2022/02/28 00:42:45;;;;;;;10.93;4.10;;;0.80;99.90;;;;;;4993820;28;20223;-71
2022/02/28 00:45:12;;;;;;;8.23;3.37;;;0.80;99.90;;;;;;4993495;28;20221;-72
2022/02/28 00:47:39;;;;;;;6.33;3.43;;;0.90;99.90;;;;;;4993703;28;20206;-71
2022/02/28 00:50:10;;;;;;;8.63;3.60;;;0.80;99.90;;;;;;4993855;28;20210;-71
2022/02/28 00:52:37;;;;;;;6.47;3.00;;;0.80;99.90;;;;;;4993698;28;20228;-71
2022/02/28 00:55:05;;;;;;;8.00;3.47;;;0.90;99.90;;;;;;4993576;28;20220;-71
2022/02/28 00:57:32;;;;;;;9.97;3.47;;;0.80;99.90;;;;;;4993570;28;20234;-71
2022/02/28 00:59:59;;;;;;;6.17;3.43;;;0.80;99.90;;;;;;4993723;28;20202;-71
2022/02/28 01:02:26;;;;;;;10.30;4.27;;;0.50;99.90;;;;;;4993207;28;20313;-72
2022/02/28 01:04:53;;;;;;;8.17;3.60;;;0.50;99.90;;;;;;4993517;28;20210;-71
2022/02/28 01:07:21;;;;;;;10.60;3.40;;;0.50;99.90;;;;;;4992918;28;20206;-71
2022/02/28 01:09:47;;;;;;;7.63;3.37;;;0.60;99.90;;;;;;4993381;28;20210;-71
2022/02/28 01:12:14;;;;;;;5.13;2.33;;;0.70;99.90;;;;;;4993238;28;20227;-71
2022/02/28 01:14:41;;;;;;;7.10;3.10;;;0.70;99.90;;;;;;4993579;28;20241;-71
2022/02/28 01:17:08;;;;;;;5.00;2.03;;;0.80;99.90;;;;;;4993346;28;20596;-71
2022/02/28 01:19:35;;;;;;;6.70;2.33;;;0.90;99.90;;;;;;4993110;28;20206;-71
2022/02/28 01:22:03;;;;;;;13.27;3.10;;;1.10;99.90;;;;;;4993552;28;20226;-70
2022/02/28 01:24:31;;;;;;;5.47;2.00;;;1.30;99.90;;;;;;4993304;28;20296;-71
2022/02/28 01:26:58;;;;;;;5.43;2.23;;;1.50;99.90;;;;;;4992937;28;20214;-71
2022/02/28 01:29:25;;;;;;;4.70;2.20;;;1.60;99.90;;;;;;4993813;28;20202;-71
2022/02/28 01:31:52;;;;;;;2.90;1.40;;;1.60;99.90;;;;;;4993513;28;20233;-72
2022/02/28 01:34:19;;;;;;;10.90;4.33;;;1.80;99.90;;;;;;4993668;28;20210;-71
2022/02/28 01:36:45;;;;;;;5.60;2.20;;;1.90;99.90;;;;;;4992510;28;20233;-71
2022/02/28 01:39:12;;;;;;;3.33;1.60;;;2.10;99.90;;;;;;4996404;28;20232;-71
2022/02/28 01:41:41;;;;;;;3.20;1.80;;;2.30;99.90;;;;;;4997238;28;20226;-71
2022/02/28 01:44:08;;;;;;;7.40;1.50;;;2.30;99.90;;;;;;4997415;28;20629;-71
2022/02/28 01:46:35;;;;;;;5.27;2.33;;;2.60;99.90;;;;;;4996595;28;20213;-72
2022/02/28 01:49:02;;;;;;;6.73;2.30;;;2.70;99.90;;;;;;4997015;28;20212;-71
2022/02/28 01:51:29;;;;;;;3.30;1.70;;;2.70;99.90;;;;;;4996914;28;20562;-71
2022/02/28 01:53:56;;;;;;;4.97;2.03;;;2.80;99.90;;;;;;4997024;28;20210;-71
2022/02/28 01:56:23;;;;;;;3.73;1.87;;;2.80;99.90;;;;;;4997151;28;20237;-71
2022/02/28 01:58:51;;;;;;;4.33;1.63;;;2.90;99.90;;;;;;4997156;28;20206;-72
2022/02/28 02:01:18;;;;;;;6.30;2.40;;;3.00;99.90;;;;;;4996069;28;20236;-71
2022/02/28 02:03:45;;;;;;;2.07;1.30;;;3.00;99.90;;;;;;4995867;28;20214;-71
2022/02/28 02:06:13;;;;;;;4.47;1.23;;;3.10;99.90;;;;;;4995788;28;20688;-72
2022/02/28 02:08:40;;;;;;;4.87;2.30;;;3.10;99.90;;;;;;4996320;28;20211;-71
2022/02/28 02:11:08;;;;;;;3.57;1.60;;;3.00;99.90;;;;;;4996890;28;20234;-73
2022/02/28 02:13:35;;;;;;;2.33;1.33;;;3.10;99.90;;;;;;4996924;28;20211;-72
2022/02/28 02:16:04;;;;;;;3.10;1.70;;;3.20;99.90;;;;;;4996842;28;20202;-74
2022/02/28 02:18:30;;;;;;;2.43;1.43;;;3.20;99.90;;;;;;4996777;28;20234;-71
2022/02/28 02:20:59;;;;;;;3.43;1.30;;;3.20;99.90;;;;;;4996000;28;20203;-71
2022/02/28 02:23:27;;;;;;;2.80;1.53;;;3.20;99.90;;;;;;4996521;28;20209;-71
2022/02/28 02:25:55;;;;;;;5.80;1.57;;;3.20;99.90;;;;;;4996730;28;20293;-71
2022/02/28 02:28:22;;;;;;;4.43;1.67;;;3.20;99.90;;;;;;4996251;28;20210;-72
2022/02/28 02:30:49;;;;;;;3.63;1.70;;;3.10;99.90;;;;;;4996810;28;20224;-71
2022/02/28 02:33:17;;;;;;;6.47;2.07;;;3.00;99.90;;;;;;4996404;28;20214;-71
2022/02/28 02:35:52;;;;;;;4.10;1.60;;;3.00;99.90;;;;;;4995917;28;20205;-71
2022/02/28 02:38:20;;;;;;;3.43;1.63;;;3.00;99.90;;;;;;4996073;28;20592;-71
2022/02/28 02:40:48;;;;;;;2.27;1.33;;;3.00;99.90;;;;;;4996228;28;20214;-73
2022/02/28 02:43:14;;;;;;;4.30;1.47;;;2.90;99.90;;;;;;4996327;28;20206;-71
2022/02/28 02:45:41;;;;;;;1.63;1.20;;;2.80;99.90;;;;;;4996214;28;20206;-71
2022/02/28 02:48:13;;;;;;;4.07;1.50;;;2.70;99.90;;;;;;4995822;28;20214;-71
2022/02/28 02:50:40;;;;;;;4.30;1.60;;;2.70;99.90;;;;;;4995639;28;20209;-71
2022/02/28 02:53:07;;;;;;;2.50;1.60;;;2.70;99.90;;;;;;4995327;28;20590;-71
2022/02/28 02:55:36;;;;;;;3.13;1.57;;;2.80;99.90;;;;;;4996193;28;20569;-71
2022/02/28 02:58:03;;;;;;;2.77;1.37;;;2.90;99.90;;;;;;4995632;28;20226;-72
2022/02/28 03:00:30;;;;;;;2.67;1.30;;;3.00;99.90;;;;;;4996047;28;20588;-71
2022/02/28 03:02:57;;;;;;;4.23;2.33;;;2.80;99.90;;;;;;4995901;28;20596;-71
2022/02/28 03:05:24;;;;;;;2.73;1.60;;;2.80;99.90;;;;;;4995839;28;20213;-71
2022/02/28 03:07:51;;;;;;;3.10;1.60;;;2.80;99.90;;;;;;4995484;28;20214;-71
2022/02/28 03:10:18;;;;;;;4.13;1.70;;;2.80;99.90;;;;;;4995125;28;20214;-72
2022/02/28 03:12:46;;;;;;;2.47;1.30;;;2.70;99.90;;;;;;4995539;28;20229;-71
2022/02/28 03:15:13;;;;;;;7.43;2.57;;;2.50;99.90;;;;;;4995523;28;20202;-71
2022/02/28 03:17:40;;;;;;;5.03;2.43;;;2.50;99.90;;;;;;4995273;28;20241;-71
2022/02/28 03:20:08;;;;;;;4.00;1.73;;;2.60;99.90;;;;;;4995958;28;20206;-71
2022/02/28 03:22:35;;;;;;;3.97;1.50;;;2.70;99.90;;;;;;4995555;28;20563;-71
2022/02/28 03:25:02;;;;;;;2.73;1.47;;;2.70;99.90;;;;;;4994816;28;20202;-71
2022/02/28 03:27:30;;;;;;;3.67;1.53;;;2.70;99.90;;;;;;4994858;28;20221;-71
2022/02/28 03:29:58;;;;;;;6.97;2.80;;;2.50;99.90;;;;;;4995035;28;20206;-71
2022/02/28 03:32:25;;;;;;;4.50;2.00;;;2.40;99.90;;;;;;4995035;28;20318;-71
2022/02/28 03:34:52;;;;;;;3.43;1.70;;;2.40;99.90;;;;;;4994263;28;20207;-71
2022/02/28 03:37:19;;;;;;;4.37;1.70;;;2.40;99.90;;;;;;4994546;28;20237;-71
2022/02/28 03:39:45;;;;;;;2.60;1.50;;;2.50;99.90;;;;;;4995203;28;20676;-71
2022/02/28 03:42:12;;;;;;;5.43;2.07;;;2.50;99.90;;;;;;4994922;28;20226;-71
2022/02/28 03:44:39;;;;;;;7.43;1.97;;;2.50;99.90;;;;;;4994992;28;20206;-71
2022/02/28 03:47:07;;;;;;;6.63;1.40;;;2.40;99.90;;;;;;4994955;28;20214;-71
2022/02/28 03:49:34;;;;;;;8.17;2.40;;;2.10;99.90;;;;;;4994298;28;20218;-71
2022/02/28 03:52:01;;;;;;;3.43;1.77;;;2.10;99.90;;;;;;4994871;28;20223;-71
2022/02/28 03:54:28;;;;;;;5.57;2.10;;;2.20;99.90;;;;;;4995006;28;20226;-71
2022/02/28 03:56:55;;;;;;;4.40;1.70;;;2.20;99.90;;;;;;4994646;28;20206;-71
2022/02/28 03:59:21;;;;;;;6.60;3.00;;;2.20;99.90;;;;;;4994457;28;20665;-71
2022/02/28 04:01:48;;;;;;;6.23;1.30;;;2.20;99.90;;;;;;4993762;28;20230;-71
2022/02/28 04:04:17;;;;;;;3.23;1.80;;;2.30;99.90;;;;;;4995089;28;20577;-70
2022/02/28 04:06:46;;;;;;;3.87;1.20;;;2.30;99.90;;;;;;4994854;28;20256;-71
2022/02/28 04:09:13;;;;;;;4.83;1.67;;;2.30;99.90;;;;;;4994779;28;20202;-71
2022/02/28 04:11:40;;;;;;;3.00;1.60;;;2.20;99.90;;;;;;4993934;28;20223;-71
2022/02/28 04:14:07;;;;;;;2.93;1.60;;;2.20;99.90;;;;;;4994647;28;20211;-71
2022/02/28 04:16:34;;;;;;;2.83;1.80;;;2.20;99.90;;;;;;4994586;28;20241;-71
2022/02/28 04:19:01;;;;;;;3.83;1.50;;;2.20;99.90;;;;;;4994468;28;20249;-72
2022/02/28 04:21:29;;;;;;;3.00;1.40;;;2.30;99.90;;;;;;4994280;28;20672;-71
2022/02/28 04:23:56;;;;;;;3.00;1.50;;;2.20;99.90;;;;;;4993958;28;20211;-71
2022/02/28 04:26:23;;;;;;;2.63;1.70;;;2.20;99.90;;;;;;4994005;28;20623;-70
2022/02/28 04:28:50;;;;;;;2.10;1.40;;;2.10;99.90;;;;;;4994032;28;20220;-71
2022/02/28 04:31:17;;;;;;;5.43;1.60;;;2.10;99.90;;;;;;4993801;28;20245;-71
2022/02/28 04:33:44;;;;;;;4.40;1.50;;;2.20;99.90;;;;;;4993815;28;20285;-71
2022/02/28 04:36:11;;;;;;;5.57;1.70;;;2.30;99.90;;;;;;4993157;28;20205;-71
2022/02/28 04:38:39;;;;;;;2.60;1.50;;;2.30;99.90;;;;;;4993628;28;20705;-71
2022/02/28 04:41:06;;;;;;;4.90;1.80;;;2.20;99.90;;;;;;4993633;28;20222;-71
2022/02/28 04:43:32;;;;;;;4.50;1.77;;;2.10;99.90;;;;;;4993916;28;20209;-71
2022/02/28 04:45:59;;;;;;;2.07;1.47;;;2.00;99.90;;;;;;4993954;28;20203;-71
2022/02/28 04:48:26;;;;;;;2.97;1.47;;;1.90;99.90;;;;;;4994262;28;20212;-70
2022/02/28 04:50:55;;;;;;;3.03;1.80;;;2.00;99.90;;;;;;4993801;28;20203;-71
2022/02/28 04:53:22;;;;;;;2.93;1.60;;;2.00;99.90;;;;;;4993751;28;20214;-71
2022/02/28 04:55:50;;;;;;;3.90;1.50;;;2.10;99.90;;;;;;4994151;28;20210;-71
2022/02/28 04:58:17;;;;;;;4.13;1.60;;;2.20;99.90;;;;;;4993905;28;20234;-71
2022/02/28 05:00:44;;;;;;;3.73;1.50;;;2.20;99.90;;;;;;4993810;28;20217;-71
2022/02/28 05:03:11;;;;;;;4.37;2.00;;;2.20;99.90;;;;;;4993724;28;20691;-73
2022/02/28 05:05:38;;;;;;;4.47;1.90;;;2.30;99.90;;;;;;4993764;28;20680;-73
2022/02/28 05:08:05;;;;;;;5.67;1.60;;;2.30;99.90;;;;;;4994094;28;20554;-71
2022/02/28 05:10:32;;;;;;;3.53;1.40;;;2.20;99.90;;;;;;4993776;28;20210;-71
2022/02/28 05:13:00;;;;;;;3.83;1.87;;;2.20;99.90;;;;;;4992419;28;20227;-71
2022/02/28 05:15:27;;;;;;;3.73;1.97;;;2.30;99.90;;;;;;4992700;28;20233;-71
2022/02/28 05:17:54;;;;;;;6.13;1.87;;;2.30;99.90;;;;;;4993029;28;20788;-71
2022/02/28 05:20:21;;;;;;;4.87;1.70;;;2.30;99.90;;;;;;4992883;28;20199;-71
2022/02/28 05:22:49;;;;;;;4.87;1.60;;;2.40;99.90;;;;;;4993753;28;20228;-71
2022/02/28 05:25:16;;;;;;;2.77;1.47;;;2.40;99.90;;;;;;4993170;28;20202;-71
2022/02/28 05:27:45;;;;;;;4.50;1.60;;;2.30;99.90;;;;;;4993212;28;20213;-71
2022/02/28 05:30:14;;;;;;;2.20;1.80;;;2.40;99.90;;;;;;4993541;28;20206;-71
2022/02/28 05:32:43;;;;;;;3.83;1.73;;;2.30;99.90;;;;;;4993360;28;20223;-71
2022/02/28 05:35:11;;;;;;;4.57;1.87;;;2.50;99.90;;;;;;4992848;28;20209;-71
2022/02/28 05:37:38;;;;;;;4.17;1.80;;;2.30;99.90;;;;;;4993090;28;20237;-71
2022/02/28 05:40:07;;;;;;;2.60;1.53;;;2.20;99.90;;;;;;4993492;28;20212;-71
2022/02/28 05:42:34;;;;;;;6.43;1.73;;;2.00;99.90;;;;;;4993110;28;20709;-71
2022/02/28 05:45:01;;;;;;;5.17;2.00;;;2.00;99.90;;;;;;4993441;28;20207;-71
2022/02/28 05:47:29;;;;;;;6.37;1.70;;;1.90;99.90;;;;;;4993362;28;20669;-70
2022/02/28 05:49:56;;;;;;;4.10;1.90;;;1.90;99.90;;;;;;4993510;28;20213;-71
2022/02/28 05:52:23;;;;;;;4.47;1.47;;;2.00;99.90;;;;;;4993332;28;20234;-72
2022/02/28 05:54:50;;;;;;;8.57;2.77;;;2.00;99.90;;;;;;4992835;28;20207;-71
2022/02/28 05:57:17;;;;;;;2.47;1.70;;;2.00;99.90;;;;;;4992862;28;20203;-71
2022/02/28 05:59:44;;;;;;;3.77;1.73;;;2.10;99.90;;;;;;4992977;28;20231;-71
2022/02/28 06:02:11;;;;;;;5.77;1.97;;;2.10;99.90;;;;;;4992903;28;20240;-70
2022/02/28 06:04:39;;;;;;;3.87;1.57;;;2.10;99.90;;;;;;4993174;28;20206;-71
2022/02/28 06:07:06;;;;;;;3.77;1.93;;;2.10;99.90;;;;;;4993020;28;20210;-71
2022/02/28 06:09:32;;;;;;;3.87;1.73;;;2.10;99.90;;;;;;4993212;28;20221;-72
2022/02/28 06:11:59;;;;;;;3.27;1.80;;;2.00;99.90;;;;;;4992319;28;20594;-71
2022/02/28 06:14:26;;;;;;;7.30;2.07;;;1.90;99.90;;;;;;4992872;28;20202;-70
2022/02/28 06:16:53;;;;;;;5.20;1.80;;;1.80;99.90;;;;;;4993340;28;20213;-70
2022/02/28 06:19:20;;;;;;;5.10;2.00;;;1.90;99.90;;;;;;4993063;28;20234;-71
2022/02/28 06:21:48;;;;;;;2.90;1.60;;;1.90;99.90;;;;;;4993003;28;20254;-71
2022/02/28 06:24:15;;;;;;;2.47;1.47;;;1.70;99.90;;;;;;4993070;28;20673;-71
2022/02/28 06:26:41;;;;;;;4.83;1.80;;;1.60;99.90;;;;;;4995341;28;20256;-70
2022/02/28 06:29:08;;;;;;;3.60;1.77;;;1.70;99.90;;;;;;4996400;28;20238;-71
2022/02/28 06:31:35;;;;;;;2.77;1.83;;;1.60;99.90;;;;;;4996338;28;20238;-72
2022/02/28 06:34:03;;;;;;;3.30;2.00;;;1.60;99.90;;;;;;4996216;28;20209;-71
2022/02/28 06:36:30;;;;;;;1.90;1.43;;;1.70;99.90;;;;;;4995912;28;20230;-73
2022/02/28 06:38:59;;;;;;;2.93;1.97;;;1.80;99.90;;;;;;4996135;28;20226;-72
2022/02/28 06:41:26;;;;;;;4.90;2.30;;;1.90;99.90;;;;;;4996022;28;20230;-73
2022/02/28 06:43:52;;;;;;;5.67;2.37;;;2.10;99.90;;;;;;4996254;28;20202;-71
2022/02/28 06:46:20;;;;;;;4.23;1.90;;;2.10;99.90;;;;;;4996475;28;20202;-70
2022/02/28 06:48:47;;;;;;;4.23;1.73;;;2.20;99.90;;;;;;4996323;28;20221;-71
2022/02/28 06:51:14;;;;;;;4.07;1.87;;;2.30;99.90;;;;;;4995970;28;20701;-71
2022/02/28 06:53:41;;;;;;;3.40;2.20;;;2.20;99.90;;;;;;4995914;28;20207;-71
2022/02/28 06:56:09;;;;;;;4.27;1.83;;;2.20;99.90;;;;;;4995961;28;20206;-71
2022/02/28 06:58:36;;;;;;;3.57;1.90;;;2.20;99.90;;;;;;4996269;28;20245;-70
2022/02/28 07:01:06;;;;;;;3.20;1.80;;;2.00;99.90;;;;;;4995489;28;20206;-71
2022/02/28 07:03:33;;;;;;;3.33;1.90;;;2.00;99.90;;;;;;4995516;28;20207;-71
2022/02/28 07:06:00;;;;;;;4.07;2.17;;;2.10;99.90;;;;;;4995698;28;20600;-71
2022/02/28 07:08:28;;;;;;;4.03;2.10;;;2.30;99.90;;;;;;4995741;28;20215;-72
2022/02/28 07:10:55;;;;;;;3.03;2.07;;;2.60;99.90;;;;;;4995437;28;20696;-71
2022/02/28 07:13:24;;;;;;;3.90;2.00;;;3.40;99.90;;;;;;4995834;28;20688;-71
2022/02/28 07:15:52;;;;;;;8.07;2.20;;;4.40;99.90;;;;;;4995572;28;20257;-72
2022/02/28 07:18:19;;;;;;;3.70;1.80;;;5.50;99.90;;;;;;4995407;28;20689;-74
2022/02/28 07:20:45;;;;;;;4.07;1.80;;;6.60;99.90;;;;;;4995466;28;20214;-73
2022/02/28 07:23:12;;;;;;;3.53;1.57;;;7.50;99.90;;;;;;4995472;28;20309;-74
2022/02/28 07:25:39;;;;;;;2.97;1.80;;;8.10;99.90;;;;;;4995166;28;20206;-73
2022/02/28 07:28:06;;;;;;;3.20;1.80;;;8.50;99.90;;;;;;4995274;28;20218;-72
2022/02/28 07:30:34;;;;;;;3.57;1.40;;;9.00;98.90;;;;;;4995523;28;20218;-72
2022/02/28 07:33:01;;;;;;;2.83;1.53;;;9.60;98.50;;;;;;4994575;28;20233;-72
2022/02/28 07:35:28;;;;;;;3.10;1.73;;;10.00;96.40;;;;;;4994610;28;20212;-73
2022/02/28 07:37:55;;;;;;;2.70;1.70;;;10.40;96.30;;;;;;4994370;28;20253;-72
2022/02/28 07:40:22;;;;;;;6.50;2.03;;;10.40;95.40;;;;;;4976155;28;20203;-73
2022/02/28 07:42:49;;;;;;;3.83;1.60;;;10.60;95.50;;;;;;4980077;28;20236;-74
2022/02/28 07:45:16;;;;;;;5.03;1.63;;;10.60;94.70;;;;;;4981883;28;20205;-72
2022/02/28 07:47:44;;;;;;;4.50;1.50;;;10.90;94.90;;;;;;4975178;28;20207;-72
2022/02/28 07:50:11;;;;;;;2.87;1.73;;;11.30;94.50;;;;;;4975070;28;20219;-74
2022/02/28 07:52:38;;;;;;;2.50;1.53;;;11.60;93.50;;;;;;4976460;28;20236;-73
2022/02/28 07:55:06;;;;;;;4.43;1.60;;;11.60;92.60;;;;;;4994250;28;20202;-71
2022/02/28 07:57:33;;;;;;;5.03;2.00;;;11.10;93.10;;;;;;4979939;28;20681;-72
2022/02/28 08:00:00;;;;;;;4.17;1.70;;;11.40;92.80;;;;;;4987959;28;20226;-71
2022/02/28 08:02:27;;;;;;;3.27;1.87;;;11.60;92.80;;;;;;4994126;28;20608;-72
2022/02/28 08:04:55;;;;;;;2.87;1.70;;;11.30;92.60;;;;;;4988270;28;20198;-73
2022/02/28 08:07:22;;;;;;;3.63;1.50;;;10.60;93.30;;;;;;4994502;28;20213;-73
2022/02/28 08:09:49;;;;;;;4.00;2.00;;;10.60;93.30;;;;;;4994170;28;20202;-72
2022/02/28 08:12:16;;;;;;;3.43;1.70;;;11.10;93.10;;;;;;4994210;28;20222;-70
2022/02/28 08:14:43;;;;;;;3.70;1.47;;;10.70;92.50;;;;;;4994004;28;20657;-71
2022/02/28 08:17:09;;;;;;;5.53;2.13;;;9.90;94.20;;;;;;4999869;28;20206;-73
2022/02/28 08:19:36;;;;;;;8.53;4.37;;;9.30;94.70;;;;;;5013349;28;20229;-72
2022/02/28 08:22:05;;;;;;;4.43;2.00;;;9.80;94.60;;;;;;4986209;28;20233;-73
2022/02/28 08:24:32;;;;;;;7.60;4.30;;;10.00;93.60;;;;;;5001473;28;20577;-71
2022/02/28 08:26:59;;;;;;;4.53;2.13;;;9.90;94.40;;;;;;4999805;28;20202;-73
2022/02/28 08:29:25;;;;;;;3.90;2.10;;;9.40;94.70;;;;;;4999906;28;20199;-72
2022/02/28 08:31:52;;;;;;;3.60;2.20;;;9.30;94.70;;;;;;4986719;28;20702;-72
2022/02/28 08:34:19;;;;;;;3.57;1.80;;;9.70;94.20;;;;;;4980945;28;20575;-73
2022/02/28 08:36:46;;;;;;;5.17;1.77;;;9.30;94.90;;;;;;4986343;28;20206;-73
2022/02/28 08:39:14;;;;;;;5.00;1.77;;;9.60;94.40;;;;;;4987347;28;20226;-71
2022/02/28 08:41:41;;;;;;;3.87;2.00;;;9.50;94.30;;;;;;4983872;28;20224;-72
2022/02/28 08:44:08;;;;;;;5.87;1.90;;;9.90;94.40;;;;;;4983042;28;20210;-72
2022/02/28 08:46:35;;;;;;;2.70;1.63;;;9.60;94.10;;;;;;4987064;28;20234;-72
2022/02/28 08:49:02;;;;;;;5.40;2.33;;;9.70;94.10;;;;;;4984060;28;20600;-74
2022/02/28 08:51:29;;;;;;;3.47;1.87;;;9.50;94.00;;;;;;4981794;28;20229;-74
2022/02/28 08:53:56;;;;;;;2.50;1.47;;;9.40;94.40;;;;;;4977630;28;20210;-73
2022/02/28 08:56:24;;;;;;;3.63;2.13;;;9.40;94.10;;;;;;4974015;28;20211;-73
2022/02/28 08:58:51;;;;;;;3.80;1.80;;;9.50;94.30;;;;;;4973961;28;20230;-73
2022/02/28 09:01:17;;;;;;;5.43;1.90;;;9.20;94.10;;;;;;4973833;28;20238;-71
2022/02/28 09:03:44;;;;;;;3.20;1.90;;;9.40;94.40;;;;;;4973965;28;20648;-75
2022/02/28 09:06:11;;;;;;;3.77;1.70;;;9.30;94.00;;;;;;4974489;28;20233;-73
2022/02/28 09:08:38;;;;;;;2.93;1.63;;;9.40;94.10;;;;;;4974039;28;20195;-74
2022/02/28 09:11:04;;;;;;;2.93;1.60;;;9.40;94.20;;;;;;4974076;28;20210;-73
2022/02/28 09:13:33;;;;;;;3.50;1.90;;;9.50;94.30;;;;;;4974038;28;20215;-74
2022/02/28 09:16:00;;;;;;;3.73;1.80;;;9.60;94.50;;;;;;4974125;28;20211;-72
2022/02/28 09:18:27;;;;;;;4.97;2.20;;;9.50;94.10;;;;;;4983164;28;20614;-74
2022/02/28 09:20:54;;;;;;;2.87;1.60;;;9.20;93.70;;;;;;4990289;28;20286;-74
2022/02/28 09:23:21;;;;;;;4.10;1.87;;;9.20;94.20;;;;;;4974978;28;20218;-74
2022/02/28 09:25:48;;;;;;;4.43;2.20;;;8.90;94.10;;;;;;4973632;28;20214;-74
2022/02/28 09:28:15;;;;;;;2.20;1.53;;;8.30;94.60;;;;;;4973628;28;20570;-74
2022/02/28 09:30:44;;;;;;;3.97;1.70;;;8.20;95.20;;;;;;4973682;28;20317;-72
2022/02/28 09:33:11;;;;;;;5.00;1.90;;;8.00;95.00;;;;;;4973632;28;20227;-73
2022/02/28 09:35:38;;;;;;;3.53;1.67;;;8.10;95.00;;;;;;4973936;28;20342;-76
2022/02/28 09:38:05;;;;;;;3.57;1.80;;;8.10;95.10;;;;;;4974030;28;20203;-77
2022/02/28 09:40:34;;;;;;;5.63;2.10;;;8.20;95.70;;;;;;4973462;28;20234;-76
2022/02/28 09:43:02;;;;;;;4.87;2.30;;;8.40;95.80;;;;;;4973324;28;20359;-73
2022/02/28 09:45:30;;;;;;;6.60;2.73;;;8.40;95.20;;;;;;4983251;28;20289;-74
2022/02/28 09:47:59;;;;;;;3.90;2.20;;;8.40;95.40;;;;;;4991708;28;20213;-75
2022/02/28 09:50:27;;;;;;;3.60;1.80;;;8.20;95.30;;;;;;4991837;28;20202;-72
2022/02/28 09:52:54;;;;;;;4.17;2.00;;;8.10;95.20;;;;;;4989345;28;20229;-74
2022/02/28 09:55:20;;;;;;;6.90;2.10;;;8.00;95.30;;;;;;4992826;28;20228;-73
2022/02/28 09:57:49;;;;;;;3.97;2.10;;;8.00;95.60;;;;;;4975951;28;20230;-72
2022/02/28 10:00:20;;;;;;;3.77;1.83;;;8.10;95.60;;;;;;4974743;28;20594;-73
2022/02/28 10:02:48;;;;;;;4.27;2.37;;;8.20;95.70;;;;;;4977393;28;20245;-80
2022/02/28 10:05:16;;;;;;;4.93;2.10;;;8.40;95.20;;;;;;4977266;28;20211;-73
2022/02/28 10:07:49;;;;;;;4.73;1.83;;;8.40;96.00;;;;;;4979468;28;20278;-73
2022/02/28 10:10:17;;;;;;;3.40;1.73;;;8.50;95.50;;;;;;4986114;28;20211;-74
2022/02/28 10:12:44;;;;;;;5.07;1.93;;;8.40;95.20;;;;;;4984868;28;20226;-75
2022/02/28 10:15:15;;;;;;;5.13;1.90;;;8.20;95.10;;;;;;4984438;28;20460;-73
2022/02/28 10:17:44;;;;;;;3.27;1.77;;;8.10;95.60;;;;;;4985786;28;20629;-75
2022/02/28 10:20:17;;;;;;;4.10;1.73;;;8.20;95.20;;;;;;4991815;28;20238;-74
2022/02/28 10:22:44;;;;;;;4.13;2.00;;;8.20;95.00;;;;;;5007701;28;20228;-73
2022/02/28 10:25:29;;;;;;;4.73;1.87;;;8.40;95.70;;;;;;4996408;28;20217;-75
2022/02/28 10:28:17;;;;;;;6.07;2.13;;;8.40;95.20;;;;;;4996561;28;20199;-73
2022/02/28 10:30:56;;;;;;;3.20;1.93;;;8.50;95.50;;;;;;4996236;28;20224;-73
2022/02/28 10:33:29;;;;;;;4.30;2.10;;;8.60;95.50;;;;;;4989577;28;20195;-73
2022/02/28 10:36:10;;;;;;;4.13;2.53;;;8.60;95.20;;;;;;4976992;28;20290;-73
2022/02/28 10:38:42;;;;;;;4.50;2.03;;;8.70;95.40;;;;;;4976773;28;20666;-74
2022/02/28 10:41:16;;;;;;;3.93;1.77;;;8.90;96.10;;;;;;4993466;28;20288;-74
2022/02/28 10:43:44;;;;;;;3.30;1.80;;;8.80;94.90;;;;;;4996221;28;20205;-73
2022/02/28 10:46:17;;;;;;;2.60;1.53;;;8.90;95.20;;;;;;4996387;28;20210;-74
2022/02/28 10:48:55;;;;;;;5.87;2.40;;;8.90;95.00;;;;;;4996194;28;20621;-73
2022/02/28 10:51:23;;;;;;;5.87;2.27;;;9.00;94.80;;;;;;4995876;28;20636;-73
2022/02/28 10:53:51;;;;;;;6.67;2.30;;;9.10;95.40;;;;;;4987135;28;20214;-77
2022/02/28 10:56:17;;;;;;;5.10;2.00;;;9.00;94.20;;;;;;4976358;28;20564;-74
2022/02/28 10:58:44;;;;;;;4.03;1.60;;;9.10;94.40;;;;;;4977472;28;20218;-73
2022/02/28 11:01:11;;;;;;;3.17;1.60;;;9.00;94.20;;;;;;4984050;28;20684;-73
2022/02/28 11:03:45;;;;;;;8.03;3.50;;;9.00;93.90;;;;;;4985353;28;20558;-75
2022/02/28 11:06:13;;;;;;;5.03;2.00;;;9.10;94.00;;;;;;4977221;28;20672;-73
2022/02/28 11:08:44;;;;;;;5.87;2.30;;;9.00;93.70;;;;;;4995903;28;20206;-73
2022/02/28 11:11:12;;;;;;;10.10;3.53;;;8.90;94.40;;;;;;4995097;28;20600;-74
2022/02/28 11:13:39;;;;;;;8.83;2.70;;;9.10;94.90;;;;;;4990832;28;20666;-75
2022/02/28 11:16:08;;;;;;;3.80;2.00;;;9.10;93.80;;;;;;4981174;28;20198;-73
2022/02/28 11:18:36;;;;;;;3.83;2.13;;;9.20;94.40;;;;;;4995437;28;20207;-74
2022/02/28 11:21:02;;;;;;;6.63;2.10;;;9.30;93.70;;;;;;4994794;28;20230;-72
2022/02/28 11:23:29;;;;;;;4.27;1.80;;;9.40;93.50;;;;;;4995328;28;20206;-73
2022/02/28 11:25:58;;;;;;;5.73;2.13;;;9.50;93.60;;;;;;4995251;28;20217;-72
2022/02/28 11:28:25;;;;;;;5.40;2.50;;;9.50;93.30;;;;;;4995046;28;20206;-75
2022/02/28 11:31:00;;;;;;;5.50;2.70;;;9.50;93.70;;;;;;4995161;28;20214;-74
2022/02/28 11:33:27;;;;;;;3.67;2.10;;;9.60;93.30;;;;;;4995277;28;20210;-74
2022/02/28 11:35:55;;;;;;;7.70;2.23;;;9.70;93.30;;;;;;4995320;28;20214;-74
2022/02/28 11:38:43;;;;;;;4.00;1.83;;;9.70;93.60;;;;;;4995314;28;20210;-72
2022/02/28 11:41:12;;;;;;;8.37;2.10;;;9.80;93.80;;;;;;4994719;28;20289;-74
2022/02/28 11:43:40;;;;;;;5.87;2.07;;;9.90;93.40;;;;;;4995006;28;20207;-73
2022/02/28 11:46:15;;;;;;;6.43;1.90;;;9.90;92.40;;;;;;4994711;28;20213;-74
2022/02/28 11:48:46;;;;;;;4.20;1.77;;;9.90;91.70;;;;;;4994974;28;20653;-73
2022/02/28 11:51:26;;;;;;;4.93;2.17;;;10.10;91.80;;;;;;4978689;28;20352;-72
2022/02/28 11:53:55;;;;;;;3.43;1.80;;;10.20;92.40;;;;;;4975290;28;20266;-73
2022/02/28 11:56:55;;;;;;;3.20;2.10;;;10.30;92.70;;;;;;4975152;28;20294;-73
2022/02/28 11:59:24;;;;;;;5.90;1.90;;;10.30;91.80;;;;;;4974859;28;20207;-74
2022/02/28 12:01:55;;;;;;;6.03;2.00;;;10.10;92.00;;;;;;4975275;28;20227;-73
2022/02/28 12:04:23;;;;;;;4.93;2.00;;;10.30;93.00;;;;;;4975039;28;20759;-73
2022/02/28 12:06:54;;;;;;;4.77;1.70;;;10.20;91.80;;;;;;4982350;28;20208;-74
2022/02/28 12:09:40;;;;;;;4.53;1.70;;;10.30;91.90;;;;;;4994654;28;20221;-72
2022/02/28 12:12:20;;;;;;;3.77;2.03;;;10.40;92.50;;;;;;4974461;28;20234;-73
2022/02/28 12:15:17;;;;;;;3.60;1.87;;;10.40;91.50;;;;;;4974776;28;20302;-73
2022/02/28 12:17:53;;;;;;;2.80;1.33;;;10.20;90.80;;;;;;4993139;28;20238;-75
2022/02/28 12:20:22;;;;;;;2.33;1.50;;;10.00;91.20;;;;;;4994162;28;20229;-74
2022/02/28 12:23:29;;;;;;;5.73;1.73;;;10.00;90.00;;;;;;4993107;28;20253;-74
2022/02/28 12:26:08;;;;;;;5.43;2.13;;;10.20;90.80;;;;;;4984647;28;20210;-78
2022/02/28 12:28:57;;;;;;;7.13;1.90;;;10.30;91.70;;;;;;4992517;28;20715;-74
2022/02/28 12:31:41;;;;;;;5.10;1.70;;;10.30;91.10;;;;;;4980885;28;20231;-75
2022/02/28 12:34:13;;;;;;;2.37;1.50;;;10.00;90.40;;;;;;4975008;28;20199;-74
2022/02/28 12:36:44;;;;;;;3.27;1.60;;;9.90;91.50;;;;;;4993618;28;20637;-73
2022/02/28 12:39:13;;;;;;;4.63;2.00;;;9.90;91.10;;;;;;4998665;28;20202;-74
2022/02/28 12:41:42;;;;;;;3.20;1.80;;;10.00;91.10;;;;;;5009064;28;20615;-75
2022/02/28 12:44:13;;;;;;;2.97;1.77;;;10.20;90.80;;;;;;5004295;28;20199;-73
2022/02/28 12:46:43;;;;;;;2.77;1.77;;;10.30;91.40;;;;;;5013522;28;20202;-74
2022/02/28 12:49:10;;;;;;;2.77;1.40;;;10.20;90.60;;;;;;5013642;28;20206;-74
2022/02/28 12:51:40;;;;;;;3.43;1.83;;;10.10;91.10;;;;;;5013102;28;20252;-74
2022/02/28 12:54:10;;;;;;;4.67;2.00;;;10.00;91.20;;;;;;5013542;28;20340;-74
2022/02/28 12:56:42;;;;;;;3.53;1.90;;;10.20;91.50;;;;;;4996657;28;20206;-76
2022/02/28 12:59:13;;;;;;;3.83;1.87;;;10.40;91.50;;;;;;4974426;28;20569;-73
2022/02/28 13:01:41;;;;;;;3.63;1.70;;;10.40;91.40;;;;;;4976535;28;20230;-75